Time,TemperatureF,DewpointF,PressureIn,WindDirection,WindDirectionDegrees,WindSpeedMPH,WindSpeedGustMPH,Humidity,HourlyPrecipIn,Conditions,Clouds,dailyrainin,SoftwareType,DateUTC
2013-01-14 00:02:00,43.7,19.8,30.22,ENE,77,5.0,9.0,38,0.00,,,0.00,meteohub,2013-01-14 08:02:00,
2013-01-14 00:22:00,44.2,20.3,30.22,NE,50,6.0,12.0,38,0.00,,,0.00,meteohub,2013-01-14 08:22:00,
2013-01-14 00:42:00,44.6,20.5,30.22,ENE,77,13.0,15.0,38,0.00,,,0.00,meteohub,2013-01-14 08:42:00,
2013-01-14 01:02:00,45.0,20.8,30.22,ENE,68,8.0,16.0,38,0.00,,,0.00,meteohub,2013-01-14 09:02:00,
2013-01-14 01:22:00,44.8,20.7,30.25,East,91,6.0,13.0,38,0.00,,,0.00,meteohub,2013-01-14 09:22:00,
2013-01-14 01:42:00,44.6,20.5,30.25,ESE,102,9.0,16.0,38,0.00,,,0.00,meteohub,2013-01-14 09:42:00,
2013-01-14 02:02:00,44.2,20.3,30.25,ENE,73,13.0,15.0,38,0.00,,,0.00,meteohub,2013-01-14 10:02:00,
2013-01-14 02:22:00,43.9,19.9,30.25,ENE,66,11.0,13.0,38,0.00,,,0.00,meteohub,2013-01-14 10:22:00,
2013-01-14 02:42:00,43.7,19.8,30.25,NE,56,10.0,15.0,38,0.00,,,0.00,meteohub,2013-01-14 10:42:00,
2013-01-14 03:02:00,43.3,19.4,30.28,ENE,58,8.0,16.0,38,0.00,,,0.00,meteohub,2013-01-14 11:02:00,
2013-01-14 03:22:00,43.2,19.2,30.28,NE,54,11.0,15.0,38,0.00,,,0.00,meteohub,2013-01-14 11:22:00,
2013-01-14 03:42:00,42.8,18.9,30.28,ENE,72,9.0,15.0,38,0.00,,,0.00,meteohub,2013-01-14 11:42:00,
2013-01-14 04:02:00,42.6,18.9,30.25,East,86,6.0,15.0,38,0.00,,,0.00,meteohub,2013-01-14 12:02:00,
2013-01-14 04:22:00,42.1,18.3,30.25,NE,55,10.0,13.0,38,0.00,,,0.00,meteohub,2013-01-14 12:22:00,
2013-01-14 04:42:00,41.7,18.0,30.28,NE,55,10.0,13.0,38,0.00,,,0.00,meteohub,2013-01-14 12:42:00,
2013-01-14 05:02:00,41.9,18.1,30.28,ENE,68,6.0,13.0,38,0.00,,,0.00,meteohub,2013-01-14 13:02:00,
2013-01-14 05:22:00,41.7,18.0,30.28,East,88,8.0,11.0,38,0.00,,,0.00,meteohub,2013-01-14 13:22:00,
2013-01-14 05:42:00,41.5,17.8,30.28,NNE,18,6.0,13.0,38,0.00,,,0.00,meteohub,2013-01-14 13:42:00,
2013-01-14 06:02:00,41.4,17.6,30.28,ENE,60,7.0,11.0,38,0.00,,,0.00,meteohub,2013-01-14 14:02:00,
2013-01-14 06:22:00,41.5,17.8,30.28,ENE,71,7.0,13.0,38,0.00,,,0.00,meteohub,2013-01-14 14:22:00,
2013-01-14 06:42:00,41.2,17.4,30.31,NE,54,8.0,13.0,38,0.00,,,0.00,meteohub,2013-01-14 14:42:00,
2013-01-14 07:02:00,40.8,17.8,30.31,ENE,70,8.0,11.0,39,0.00,,,0.00,meteohub,2013-01-14 15:02:00,
2013-01-14 07:22:00,41.4,17.6,30.31,ENE,77,8.0,11.0,38,0.00,,,0.00,meteohub,2013-01-14 15:22:00,
2013-01-14 08:02:00,43.5,19.6,30.34,ENE,61,9.0,13.0,38,0.00,,,0.00,meteohub,2013-01-14 16:02:00,
2013-01-14 08:22:00,44.6,20.5,30.34,NE,50,11.0,17.0,38,0.00,,,0.00,meteohub,2013-01-14 16:22:00,
2013-01-14 08:42:00,45.7,21.6,30.34,NE,45,10.0,17.0,38,0.00,,,0.00,meteohub,2013-01-14 16:42:00,
2013-01-14 09:02:00,46.9,22.1,30.37,NE,48,6.0,15.0,37,0.00,,,0.00,meteohub,2013-01-14 17:02:00,
2013-01-14 09:22:00,48.0,23.0,30.34,ENE,61,10.0,17.0,37,0.00,,,0.00,meteohub,2013-01-14 17:22:00,
2013-01-14 09:42:00,48.7,23.5,30.34,ENE,70,8.0,14.0,37,0.00,,,0.00,meteohub,2013-01-14 17:42:00,
2013-01-14 10:02:00,50.0,24.8,30.34,NNE,31,8.0,15.0,37,0.00,,,0.00,meteohub,2013-01-14 18:02:00,
2013-01-14 10:22:00,50.9,25.5,30.37,NE,41,14.0,14.0,37,0.00,,,0.00,meteohub,2013-01-14 18:22:00,
2013-01-14 10:42:00,52.0,25.9,30.34,East,92,5.0,13.0,36,0.00,,,0.00,meteohub,2013-01-14 18:42:00,
2013-01-14 11:02:00,53.2,27.0,30.34,NE,36,8.0,13.0,36,0.00,,,0.00,meteohub,2013-01-14 19:02:00,
2013-01-14 11:22:00,54.3,27.9,30.34,ENE,58,6.0,11.0,36,0.00,,,0.00,meteohub,2013-01-14 19:22:00,
2013-01-14 11:42:00,55.0,28.6,30.34,NNW,333,8.0,9.0,36,0.00,,,0.00,meteohub,2013-01-14 19:42:00,
2013-01-14 12:02:00,55.6,28.4,30.34,ENE,68,4.0,9.0,35,0.00,,,0.00,meteohub,2013-01-14 20:02:00,
2013-01-14 12:22:00,56.5,29.1,30.34,NE,46,3.0,8.0,35,0.00,,,0.00,meteohub,2013-01-14 20:22:00,
2013-01-14 12:42:00,56.8,29.5,30.34,North,5,6.0,11.0,35,0.00,,,0.00,meteohub,2013-01-14 20:42:00,
2013-01-14 13:02:00,56.7,29.3,30.34,NNE,15,3.0,8.0,35,0.00,,,0.00,meteohub,2013-01-14 21:02:00,
2013-01-14 13:22:00,58.1,30.6,30.34,NW,326,7.0,8.0,35,0.00,,,0.00,meteohub,2013-01-14 21:22:00,
2013-01-14 13:42:00,58.1,30.6,30.34,West,271,9.0,10.0,35,0.00,,,0.00,meteohub,2013-01-14 21:42:00,
2013-01-14 14:02:00,55.9,28.8,30.34,SW,234,6.0,13.0,35,0.00,,,0.00,meteohub,2013-01-14 22:02:00,
2013-01-14 14:22:00,55.9,28.8,30.34,WSW,245,6.0,9.0,35,0.00,,,0.00,meteohub,2013-01-14 22:22:00,
2013-01-14 15:02:00,55.9,28.8,30.34,West,260,6.0,9.0,35,0.00,,,0.00,meteohub,2013-01-14 23:02:00,
2013-01-14 15:22:00,54.7,28.2,30.34,WSW,244,6.0,11.0,36,0.00,,,0.00,meteohub,2013-01-14 23:22:00,
2013-01-14 15:42:00,54.0,27.7,30.34,WSW,249,5.0,11.0,36,0.00,,,0.00,meteohub,2013-01-14 23:42:00,
2013-01-14 16:02:00,53.8,27.5,30.34,West,276,3.0,9.0,36,0.00,,,0.00,meteohub,2013-01-15 00:02:00,
2013-01-14 16:22:00,54.0,27.7,30.34,West,278,5.0,8.0,36,0.00,,,0.00,meteohub,2013-01-15 00:22:00,
2013-01-14 16:42:00,51.4,26.1,30.34,SW,220,4.0,9.0,37,0.00,,,0.00,meteohub,2013-01-15 00:42:00,
2013-01-14 17:02:00,50.2,25.0,30.34,SW,231,6.0,11.0,37,0.00,,,0.00,meteohub,2013-01-15 01:02:00,
2013-01-14 17:22:00,49.8,24.6,30.37,SW,231,6.0,9.0,37,0.00,,,0.00,meteohub,2013-01-15 01:22:00,
2013-01-14 17:42:00,49.5,24.3,30.37,West,262,6.0,8.0,37,0.00,,,0.00,meteohub,2013-01-15 01:42:00,
2013-01-14 18:02:00,49.3,24.1,30.37,WSW,253,5.0,8.0,37,0.00,,,0.00,meteohub,2013-01-15 02:02:00,
2013-01-14 18:22:00,49.6,24.4,30.37,WSW,244,4.0,6.0,37,0.00,,,0.00,meteohub,2013-01-15 02:22:00,
2013-01-14 18:42:00,50.2,25.0,30.37,WSW,242,4.0,8.0,37,0.00,,,0.00,meteohub,2013-01-15 02:42:00,
2013-01-14 19:02:00,49.6,24.4,30.37,SSW,209,3.0,5.0,37,0.00,,,0.00,meteohub,2013-01-15 03:02:00,
2013-01-14 19:22:00,48.2,23.2,30.37,ESE,121,3.0,5.0,37,0.00,,,0.00,meteohub,2013-01-15 03:22:00,
2013-01-14 19:42:00,46.6,21.7,30.37,SSE,149,3.0,6.0,37,0.00,,,0.00,meteohub,2013-01-15 03:42:00,
2013-01-14 20:02:00,45.9,21.7,30.40,SE,136,4.0,5.0,38,0.00,,,0.00,meteohub,2013-01-15 04:02:00,
2013-01-14 20:22:00,45.5,21.4,30.40,SSE,148,0.0,5.0,38,0.00,,,0.00,meteohub,2013-01-15 04:22:00,
2013-01-14 20:42:00,45.1,21.0,30.37,SSW,193,2.0,4.0,38,0.00,,,0.00,meteohub,2013-01-15 04:42:00,
2013-01-14 21:02:00,43.5,19.6,30.40,SSE,154,0.0,4.0,38,0.00,,,0.00,meteohub,2013-01-15 05:02:00,
2013-01-14 21:22:00,43.0,19.0,30.40,SSE,154,0.0,0.0,38,0.00,,,0.00,meteohub,2013-01-15 05:22:00,
2013-01-14 21:42:00,42.8,18.9,30.40,NE,46,4.0,5.0,38,0.00,,,0.00,meteohub,2013-01-15 05:42:00,
2013-01-14 22:02:00,42.4,18.7,30.40,NE,45,3.0,5.0,38,0.00,,,0.00,meteohub,2013-01-15 06:02:00,
2013-01-14 22:22:00,41.2,17.4,30.40,NW,315,3.0,3.0,38,0.00,,,0.00,meteohub,2013-01-15 06:22:00,
2013-01-14 22:42:00,39.4,16.5,30.40,NW,320,0.0,3.0,39,0.00,,,0.00,meteohub,2013-01-15 06:42:00,
2013-01-14 23:02:00,39.6,16.7,30.40,ENE,71,0.0,3.0,39,0.00,,,0.00,meteohub,2013-01-15 07:02:00,
2013-01-14 23:22:00,38.7,15.8,30.40,ENE,71,0.0,0.0,39,0.00,,,0.00,meteohub,2013-01-15 07:22:00,
2013-01-14 23:42:00,37.4,14.7,30.40,NNW,346,3.0,5.0,39,0.00,,,0.00,meteohub,2013-01-15 07:42:00,